Weather Data

Pearl Creek Farm: 8878 N Farm Road 75, Walnut Grove MO 65770

<== Previous Day (Tuesday 14 Aug 2018) | Next Day (Thursday 16 Aug 2018) ==>

Summary Precipitation Data For Wednesday 15 August 2018

ElementValueUnits
Precipitation0.33"
Notes(none)
SourcePearl Creek Farm

Summary Temperature Data For Wednesday 15 August 2018

ElementValueUnits
High Temperature80 oF
Low Temperature70 oF
Average Temperature74 oF
High Humidity94 %
Low Humidity77 %
Average Humidity88 %
SourceSpringfield-Branson National Airport (SGF)

Detail Temperature Data For Wednesday 15 August 2018

Date / TimeTemp (F)RH (%)Dew Pt (F)Report Date / TimeSource
2018-08-15 00:52:00 71 87 67.0 2019-02-02 11:24:24.260017 Springfield-Branson National Airport (SGF)
2018-08-15 01:52:00 70 90 67.0 2019-02-02 11:24:24.260017 Springfield-Branson National Airport (SGF)
2018-08-15 02:52:00 70 93 68.0 2019-02-02 11:24:24.260017 Springfield-Branson National Airport (SGF)
2018-08-15 04:52:00 71 90 68.0 2019-02-02 11:24:24.260017 Springfield-Branson National Airport (SGF)
2018-08-15 08:52:00 73 90 70.0 2019-02-02 11:24:24.260017 Springfield-Branson National Airport (SGF)
2018-08-15 09:52:00 75 88 71.0 2019-02-02 11:24:24.260017 Springfield-Branson National Airport (SGF)
2018-08-15 10:52:00 75 84 70.0 2019-02-02 11:24:24.260017 Springfield-Branson National Airport (SGF)
2018-08-15 11:52:00 73 90 70.0 2019-02-02 11:24:24.260017 Springfield-Branson National Airport (SGF)
2018-08-15 13:52:00 76 85 71.0 2019-02-02 11:24:24.260017 Springfield-Branson National Airport (SGF)
2018-08-15 15:52:00 75 94 73.0 2019-02-02 11:24:24.260017 Springfield-Branson National Airport (SGF)
2018-08-15 03:52:00 70 93 68.0 2019-02-02 11:24:24.260017 Springfield-Branson National Airport (SGF)
2018-08-15 05:52:00 72 91 69.0 2019-02-02 11:24:24.260017 Springfield-Branson National Airport (SGF)
2018-08-15 06:52:00 72 94 70.0 2019-02-02 11:24:24.260017 Springfield-Branson National Airport (SGF)
2018-08-15 07:52:00 73 90 70.0 2019-02-02 11:24:24.260017 Springfield-Branson National Airport (SGF)
2018-08-15 12:52:00 76 88 72.0 2019-02-02 11:24:24.260017 Springfield-Branson National Airport (SGF)
2018-08-15 14:52:00 76 85 71.0 2019-02-02 11:24:24.260017 Springfield-Branson National Airport (SGF)
2018-08-15 16:52:00 80 79 73.0 2019-02-02 11:24:24.260017 Springfield-Branson National Airport (SGF)
2018-08-15 17:52:00 79 77 71.0 2019-02-02 11:24:24.260017 Springfield-Branson National Airport (SGF)
2018-08-15 18:52:00 77 82 71.0 2019-02-02 11:24:24.260017 Springfield-Branson National Airport (SGF)
2018-08-15 19:52:00 76 88 72.0 2019-02-02 11:24:24.260017 Springfield-Branson National Airport (SGF)
2018-08-15 20:52:00 75 88 71.0 2019-02-02 11:24:24.260017 Springfield-Branson National Airport (SGF)
2018-08-15 21:52:00 74 91 71.0 2019-02-02 11:24:24.260017 Springfield-Branson National Airport (SGF)
2018-08-15 22:52:00 75 90 72.0 2019-02-02 11:24:24.260017 Springfield-Branson National Airport (SGF)
2018-08-15 23:52:00 75 90 72.0 2019-02-02 11:24:24.260017 Springfield-Branson National Airport (SGF)

A total of 24 rows are displayed.